createdAt,value
2022-10-24T00:02:12.360Z,2.78
2022-10-24T00:05:00.026Z,2.13
2022-10-24T00:07:47.823Z,2.10
2022-10-24T00:10:37.471Z,2.42
2022-10-24T00:13:24.924Z,2.42
2022-10-24T00:16:13.712Z,2.53
2022-10-24T00:19:01.203Z,2.30
2022-10-24T00:21:48.960Z,2.35
2022-10-24T00:24:36.390Z,2.47
2022-10-24T00:27:25.524Z,2.70
2022-10-24T00:30:14.227Z,2.60
2022-10-24T00:33:02.272Z,2.13
2022-10-24T00:35:49.667Z,1.92
2022-10-24T00:38:37.317Z,2.50
2022-10-24T00:41:27.749Z,2.50
2022-10-24T00:44:24.193Z,2.15
2022-10-24T00:47:17.627Z,2.03
2022-10-24T00:50:15.313Z,2.30
2022-10-24T00:53:03.361Z,2.00
2022-10-24T00:55:55.954Z,2.05
2022-10-24T00:58:45.964Z,2.00
2022-10-24T01:01:36.060Z,2.10
2022-10-24T01:04:24.089Z,2.30
2022-10-24T01:07:40.299Z,2.20
2022-10-24T01:10:44.276Z,1.50
2022-10-24T01:13:45.857Z,1.80
2022-10-24T01:16:44.300Z,1.73
2022-10-24T01:20:24.522Z,2.17
2022-10-24T01:23:49.300Z,1.80
2022-10-24T01:27:48.677Z,1.70
2022-10-24T01:30:45.206Z,1.98
2022-10-24T01:33:39.389Z,1.95
2022-10-24T01:36:39.275Z,1.52
2022-10-24T01:39:35.593Z,1.95
2022-10-24T01:42:27.514Z,1.90
2022-10-24T01:45:25.065Z,2.00
2022-10-24T01:48:21.287Z,5.18
2022-10-24T01:51:12.525Z,6.70
2022-10-24T01:54:01.765Z,14.02
2022-10-24T01:56:49.989Z,10.90
2022-10-24T01:59:47.276Z,10.82
2022-10-24T02:02:40.889Z,16.67
2022-10-24T02:05:35.316Z,7.85
2022-10-24T02:08:35.798Z,10.13
2022-10-24T02:11:23.414Z,3.80
2022-10-24T02:14:18.242Z,2.63
2022-10-24T02:17:05.928Z,4.22
2022-10-24T02:19:54.689Z,2.20
2022-10-24T02:22:52.315Z,2.13
2022-10-24T02:25:47.673Z,2.00
2022-10-24T02:28:42.249Z,5.38
2022-10-24T02:31:39.604Z,3.22
2022-10-24T02:34:33.031Z,2.75
2022-10-24T02:37:21.903Z,4.63
2022-10-24T02:40:15.089Z,2.00
2022-10-24T02:43:06.066Z,1.70
2022-10-24T02:45:59.554Z,2.55
2022-10-24T02:48:57.546Z,9.07
2022-10-24T02:51:47.669Z,11.25
2022-10-24T02:54:35.769Z,7.68
2022-10-24T02:57:26.656Z,7.80
2022-10-24T03:00:15.408Z,4.43
2022-10-24T03:03:03.054Z,3.03
2022-10-24T03:05:50.650Z,3.65
2022-10-24T03:08:38.051Z,2.60
2022-10-24T03:11:25.716Z,2.95
2022-10-24T03:14:14.608Z,3.13
2022-10-24T03:17:02.106Z,2.70
2022-10-24T03:19:49.459Z,3.97
2022-10-24T03:22:37.280Z,3.38
2022-10-24T03:25:25.012Z,3.40
2022-10-24T03:28:12.505Z,3.20
2022-10-24T03:31:01.322Z,6.35
2022-10-24T03:33:48.905Z,5.25
2022-10-24T03:36:36.636Z,3.63
2022-10-24T03:39:24.670Z,3.70
2022-10-24T03:42:12.393Z,5.50
2022-10-24T03:45:00.980Z,5.25
2022-10-24T03:47:52.613Z,6.22
2022-10-24T03:50:40.598Z,4.80
2022-10-24T03:53:28.556Z,4.22
2022-10-24T03:56:16.284Z,4.05
2022-10-24T03:59:03.697Z,3.30
2022-10-24T04:01:51.369Z,3.20
2022-10-24T04:04:40.258Z,2.97
2022-10-24T04:07:27.917Z,2.50
2022-10-24T04:10:15.638Z,2.33
2022-10-24T04:13:02.985Z,2.50
2022-10-24T04:15:50.484Z,2.60
2022-10-24T04:18:38.151Z,3.92
2022-10-24T04:21:27.196Z,2.20
2022-10-24T04:24:16.090Z,2.80
2022-10-24T04:27:03.872Z,2.15
2022-10-24T04:29:51.626Z,2.40
2022-10-24T04:32:39.202Z,3.22
2022-10-24T04:35:27.151Z,2.08
2022-10-24T04:38:16.272Z,3.40
2022-10-24T04:41:06.215Z,2.70
2022-10-24T04:43:56.307Z,2.15
2022-10-24T04:46:47.883Z,2.20
2022-10-24T04:49:36.969Z,2.47
2022-10-24T04:52:28.004Z,2.80
2022-10-24T04:55:16.901Z,2.42
2022-10-24T04:58:05.675Z,1.83
2022-10-24T05:00:53.100Z,2.25
2022-10-24T05:03:40.572Z,2.60
2022-10-24T05:06:28.555Z,2.30
2022-10-24T05:09:16.156Z,2.80
2022-10-24T05:12:06.628Z,1.85
2022-10-24T05:14:54.361Z,2.53
2022-10-24T05:17:42.193Z,2.22
2022-10-24T05:20:30.650Z,2.38
2022-10-24T05:23:18.433Z,2.35
2022-10-24T05:26:06.276Z,2.58
2022-10-24T05:29:02.892Z,3.15
2022-10-24T05:31:50.625Z,2.78
2022-10-24T05:34:37.972Z,2.55
2022-10-24T05:37:25.732Z,2.67
2022-10-24T05:40:14.631Z,2.67
2022-10-24T05:43:02.197Z,2.35
2022-10-24T05:48:44.043Z,3.20
2022-10-24T05:51:31.629Z,2.20
2022-10-24T05:54:19.020Z,2.40
2022-10-24T05:57:07.036Z,2.08
2022-10-24T05:59:54.592Z,2.40
2022-10-24T06:02:44.223Z,2.08
2022-10-24T06:05:31.671Z,2.22
2022-10-24T06:08:19.692Z,2.75
2022-10-24T06:11:11.619Z,3.67
2022-10-24T06:13:59.219Z,2.53
2022-10-24T06:16:46.677Z,2.83
2022-10-24T06:19:37.544Z,2.83
2022-10-24T06:22:27.674Z,3.05
2022-10-24T06:25:15.724Z,2.55
2022-10-24T06:28:03.339Z,2.83
2022-10-24T06:30:54.416Z,2.58
2022-10-24T06:33:41.957Z,2.50
2022-10-24T06:36:31.680Z,3.40
2022-10-24T06:39:21.577Z,2.63
2022-10-24T06:42:09.106Z,2.90
2022-10-24T06:47:51.858Z,4.07
2022-10-24T06:50:41.696Z,3.15
2022-10-24T06:53:35.314Z,2.88
2022-10-24T06:56:23.505Z,3.22
2022-10-24T06:59:13.820Z,3.83
2022-10-24T07:02:04.945Z,3.60
2022-10-24T07:04:53.865Z,3.10
2022-10-24T07:07:43.921Z,3.63
2022-10-24T07:10:33.467Z,4.15
2022-10-24T07:13:22.686Z,3.63
2022-10-24T07:16:10.665Z,2.85
2022-10-24T07:18:58.322Z,3.30
2022-10-24T07:21:46.037Z,2.53
2022-10-24T07:24:33.750Z,2.90
2022-10-24T07:27:23.348Z,3.67
2022-10-24T07:30:18.818Z,7.85
2022-10-24T07:33:07.558Z,3.28
2022-10-24T07:35:55.315Z,3.53
2022-10-24T07:38:43.029Z,2.50
2022-10-24T07:41:33.484Z,2.85
2022-10-24T07:44:22.296Z,3.22
2022-10-24T07:47:10.138Z,4.47
2022-10-24T07:49:58.218Z,2.95
2022-10-24T07:52:45.491Z,3.72
2022-10-24T07:55:32.872Z,2.38
2022-10-24T07:58:20.421Z,2.70
2022-10-24T08:01:13.624Z,3.10
2022-10-24T08:04:01.500Z,2.90
2022-10-24T08:06:49.053Z,3.05
2022-10-24T08:09:39.108Z,2.88
2022-10-24T08:12:26.456Z,2.63
2022-10-24T08:15:14.185Z,3.00
2022-10-24T08:18:02.960Z,2.58
2022-10-24T08:20:59.861Z,2.38
2022-10-24T08:23:50.689Z,2.95
2022-10-24T08:26:40.569Z,2.20
2022-10-24T08:29:28.097Z,2.20
2022-10-24T08:32:15.486Z,2.40
2022-10-24T08:35:05.099Z,2.95
2022-10-24T08:37:52.562Z,2.58
2022-10-24T08:40:40.309Z,2.78
2022-10-24T08:43:28.500Z,2.88
2022-10-24T08:46:44.253Z,3.13
2022-10-24T08:49:43.234Z,2.10
2022-10-24T08:52:42.542Z,2.70
2022-10-24T08:55:55.423Z,2.83
2022-10-24T08:58:47.678Z,2.55
2022-10-24T09:01:48.539Z,3.03
2022-10-24T09:04:47.618Z,3.22
2022-10-24T09:07:36.852Z,2.67
2022-10-24T09:10:39.205Z,3.20
2022-10-24T09:13:29.625Z,3.00
2022-10-24T09:16:25.118Z,2.35
2022-10-24T09:19:18.506Z,3.10
2022-10-24T09:22:08.197Z,2.88
2022-10-24T09:25:02.042Z,2.85
2022-10-24T09:27:50.156Z,2.63
2022-10-24T09:30:39.239Z,2.88
2022-10-24T09:33:31.681Z,2.85
2022-10-24T09:36:24.884Z,2.28
2022-10-24T09:39:31.023Z,3.00
2022-10-24T09:42:23.743Z,2.67
2022-10-24T09:48:30.663Z,3.20
2022-10-24T09:51:33.304Z,2.95
2022-10-24T09:54:29.974Z,2.47
2022-10-24T09:57:21.403Z,3.00
2022-10-24T10:00:22.820Z,2.78
2022-10-24T10:03:24.043Z,2.90
2022-10-24T10:06:19.705Z,2.80
2022-10-24T10:09:14.676Z,3.10
2022-10-24T10:12:03.015Z,2.63
2022-10-24T10:14:52.774Z,2.55
2022-10-24T10:17:52.264Z,3.65
2022-10-24T10:20:43.946Z,2.63
2022-10-24T10:23:34.698Z,2.40
2022-10-24T10:26:29.151Z,3.30
2022-10-24T10:29:25.261Z,3.10
2022-10-24T10:32:26.931Z,2.60
2022-10-24T10:35:23.597Z,3.25
2022-10-24T10:38:37.972Z,3.53
2022-10-24T10:41:43.434Z,3.05
2022-10-24T10:44:53.820Z,2.75
2022-10-24T10:47:55.327Z,2.75
2022-10-24T10:50:52.400Z,2.97
2022-10-24T10:53:49.996Z,3.33
2022-10-24T10:56:49.589Z,3.42
2022-10-24T10:59:54.402Z,4.07
2022-10-24T11:03:03.667Z,4.18
2022-10-24T11:06:06.355Z,4.35
2022-10-24T11:09:24.496Z,2.90
2022-10-24T11:12:21.091Z,3.40
2022-10-24T11:18:21.918Z,3.25
2022-10-24T11:21:12.994Z,3.17
2022-10-24T11:24:11.114Z,3.88
2022-10-24T11:27:11.312Z,3.30
2022-10-24T11:30:07.165Z,3.65
2022-10-24T11:33:02.763Z,5.35
2022-10-24T11:36:08.875Z,4.75
2022-10-24T11:39:04.327Z,4.18
2022-10-24T11:42:00.264Z,5.15
2022-10-24T11:44:54.966Z,4.80
2022-10-24T11:47:57.223Z,4.93
2022-10-24T11:50:52.421Z,3.90
2022-10-24T11:54:02.193Z,8.63
2022-10-24T11:56:56.114Z,9.07
2022-10-24T11:59:43.957Z,11.93
2022-10-24T12:03:09.549Z,6.63
2022-10-24T12:06:20.489Z,4.43
2022-10-24T12:09:48.865Z,4.28
2022-10-24T12:13:03.863Z,4.10
2022-10-24T12:16:05.405Z,5.40
2022-10-24T12:19:01.343Z,4.18
2022-10-24T12:21:54.735Z,4.45
2022-10-24T12:24:44.375Z,3.55
2022-10-24T12:27:35.903Z,3.45
2022-10-24T12:30:27.219Z,3.97
2022-10-24T12:33:28.850Z,4.68
2022-10-24T12:36:17.336Z,4.03
2022-10-24T12:39:05.898Z,3.20
2022-10-24T12:41:55.881Z,3.17
2022-10-24T12:44:47.884Z,3.53
2022-10-24T12:47:41.486Z,3.10
2022-10-24T12:51:33.501Z,3.17
2022-10-24T12:54:41.148Z,2.90
2022-10-24T12:57:46.980Z,2.92
2022-10-24T13:00:39.815Z,2.85
2022-10-24T13:03:57.099Z,2.80
2022-10-24T13:07:13.882Z,2.75
2022-10-24T13:10:25.856Z,3.13
2022-10-24T13:13:54.882Z,3.47
2022-10-24T13:16:59.129Z,2.65
2022-10-24T13:19:47.821Z,4.00
2022-10-24T13:22:38.888Z,4.93
2022-10-24T13:25:34.671Z,5.30
2022-10-24T13:28:47.572Z,6.22
2022-10-24T13:31:48.976Z,6.43
2022-10-24T13:34:46.185Z,5.72
2022-10-24T13:37:42.482Z,5.20
2022-10-24T13:40:33.199Z,3.97
2022-10-24T13:43:22.272Z,4.30
2022-10-24T13:46:16.323Z,3.30
2022-10-24T13:49:07.571Z,3.08
2022-10-24T13:52:03.903Z,3.33
2022-10-24T13:55:00.875Z,3.42
2022-10-24T13:57:59.936Z,3.35
2022-10-24T14:00:56.063Z,3.72
2022-10-24T14:03:47.788Z,4.25
2022-10-24T14:06:35.976Z,3.92
2022-10-24T14:09:23.831Z,3.60
2022-10-24T14:12:21.937Z,7.13
2022-10-24T14:15:19.883Z,4.68
2022-10-24T14:18:15.271Z,6.50
2022-10-24T14:21:05.489Z,6.45
2022-10-24T14:24:00.751Z,5.13
2022-10-24T14:26:53.450Z,4.25
2022-10-24T14:29:52.415Z,4.20
2022-10-24T14:32:40.359Z,4.43
2022-10-24T14:35:28.419Z,3.92
2022-10-24T14:38:19.290Z,4.90
2022-10-24T14:41:10.251Z,4.05
2022-10-24T14:43:59.610Z,5.00
2022-10-24T14:47:01.715Z,3.85
2022-10-24T14:49:49.607Z,5.70
2022-10-24T14:52:38.094Z,5.93
2022-10-24T14:55:27.510Z,4.78
2022-10-24T14:58:25.442Z,7.22
2022-10-24T15:01:19.527Z,5.10
2022-10-24T15:04:07.509Z,5.47
2022-10-24T15:06:57.754Z,6.28
2022-10-24T15:09:58.320Z,5.28
2022-10-24T15:12:55.171Z,5.45
2022-10-24T15:15:53.254Z,6.90
2022-10-24T15:18:45.175Z,9.07
2022-10-24T15:21:38.823Z,6.70
2022-10-24T15:24:28.329Z,8.38
2022-10-24T15:27:40.040Z,8.73
2022-10-24T15:30:32.469Z,8.38
2022-10-24T15:33:20.539Z,5.85
2022-10-24T15:36:22.828Z,8.27
2022-10-24T15:39:17.246Z,4.78
2022-10-24T15:42:04.985Z,4.65
2022-10-24T15:44:52.854Z,6.93
2022-10-24T15:47:42.013Z,8.52
2022-10-24T15:50:29.413Z,6.45
2022-10-24T15:53:20.999Z,5.95
2022-10-24T15:56:11.139Z,5.43
2022-10-24T15:58:58.544Z,4.45
2022-10-24T16:01:50.578Z,2.80
2022-10-24T16:04:40.319Z,3.35
2022-10-24T16:07:28.068Z,3.38
2022-10-24T16:10:19.776Z,3.55
2022-10-24T16:13:07.542Z,3.38
2022-10-24T16:15:55.585Z,3.22
2022-10-24T16:18:43.356Z,2.30
2022-10-24T16:21:32.718Z,2.78
2022-10-24T16:24:20.891Z,4.07
2022-10-24T16:27:08.625Z,3.72
2022-10-24T16:29:56.057Z,2.50
2022-10-24T16:32:44.022Z,3.20
2022-10-24T16:35:35.283Z,2.70
2022-10-24T16:38:24.394Z,2.75
2022-10-24T16:41:16.678Z,2.42
2022-10-24T16:44:05.154Z,2.85
2022-10-24T16:46:54.465Z,2.70
2022-10-24T16:49:41.958Z,2.70
2022-10-24T16:52:29.958Z,2.50
2022-10-24T16:55:19.420Z,2.78
2022-10-24T16:58:07.208Z,3.35
2022-10-24T17:01:04.520Z,2.45
2022-10-24T17:03:52.388Z,3.67
2022-10-24T17:06:40.454Z,2.85
2022-10-24T17:09:28.328Z,2.65
2022-10-24T17:12:17.663Z,10.38
2022-10-24T17:15:07.135Z,3.55
2022-10-24T17:17:54.989Z,12.07
2022-10-24T17:20:45.544Z,10.40
2022-10-24T17:23:34.725Z,10.43
2022-10-24T17:26:23.129Z,10.02
2022-10-24T17:29:24.206Z,9.88
2022-10-24T17:32:14.875Z,6.25
2022-10-24T17:35:03.237Z,8.00
2022-10-24T17:38:08.157Z,7.63
2022-10-24T17:41:01.568Z,6.90
2022-10-24T17:43:50.574Z,6.68
2022-10-24T17:46:40.668Z,8.10
2022-10-24T17:49:28.195Z,7.30
2022-10-24T17:52:23.764Z,4.00
2022-10-24T17:55:40.983Z,6.65
2022-10-24T17:58:28.121Z,3.88
2022-10-24T18:01:15.484Z,3.83
2022-10-24T18:04:05.275Z,4.55
2022-10-24T18:06:52.886Z,3.60
2022-10-24T18:09:40.477Z,3.88
2022-10-24T18:12:28.319Z,4.80
2022-10-24T18:15:19.412Z,3.20
2022-10-24T18:18:07.841Z,3.00
2022-10-24T18:21:08.545Z,3.00
2022-10-24T18:23:57.080Z,2.88
2022-10-24T18:26:46.656Z,3.00
2022-10-24T18:29:34.303Z,2.67
2022-10-24T18:32:21.821Z,2.90
2022-10-24T18:35:10.476Z,2.63
2022-10-24T18:37:59.473Z,2.72
2022-10-24T18:40:48.078Z,2.70
2022-10-24T18:43:36.283Z,2.55
2022-10-24T18:46:24.772Z,2.90
2022-10-24T18:49:12.969Z,2.58
2022-10-24T18:52:16.779Z,2.40
2022-10-24T18:55:16.718Z,2.17
2022-10-24T18:58:05.268Z,2.50
2022-10-24T19:00:59.965Z,2.72
2022-10-24T19:03:47.948Z,2.58
2022-10-24T19:06:38.562Z,2.85
2022-10-24T19:09:27.900Z,2.92
2022-10-24T19:12:17.587Z,2.92
2022-10-24T19:15:06.735Z,2.80
2022-10-24T19:17:54.161Z,3.17
2022-10-24T19:20:42.469Z,2.42
2022-10-24T19:23:30.169Z,3.35
2022-10-24T19:26:18.358Z,3.53
2022-10-24T19:29:07.030Z,3.28
2022-10-24T19:31:54.420Z,3.00
2022-10-24T19:34:41.925Z,3.03
2022-10-24T19:37:29.518Z,3.03
2022-10-24T19:40:17.180Z,3.20
2022-10-24T19:43:04.675Z,3.17
2022-10-24T19:46:07.484Z,3.35
2022-10-24T19:49:03.716Z,3.00
2022-10-24T19:51:52.266Z,3.50
2022-10-24T19:54:43.195Z,3.05
2022-10-24T19:57:31.135Z,3.20
2022-10-24T20:00:19.222Z,3.40
2022-10-24T20:03:08.301Z,3.03
2022-10-24T20:05:59.884Z,3.00
2022-10-24T20:21:48.081Z,3.20
2022-10-24T20:24:35.719Z,3.33
2022-10-24T20:27:24.758Z,4.05
2022-10-24T20:30:13.869Z,3.45
2022-10-24T20:37:22.314Z,3.58
2022-10-24T20:40:12.813Z,3.40
2022-10-24T20:43:01.987Z,3.40
2022-10-24T20:45:49.635Z,3.30
2022-10-24T20:48:37.693Z,3.25
2022-10-24T20:51:25.095Z,3.03
2022-10-24T20:54:14.265Z,3.15
2022-10-24T20:57:02.023Z,2.72
2022-10-24T20:59:49.636Z,2.58
2022-10-24T21:02:37.615Z,3.33
2022-10-24T21:05:27.333Z,2.60
2022-10-24T21:08:15.170Z,2.33
2022-10-24T21:11:08.442Z,2.22
2022-10-24T21:13:58.916Z,2.40
2022-10-24T21:16:46.633Z,2.17
2022-10-24T21:19:33.992Z,2.60
2022-10-24T21:22:21.402Z,2.35
2022-10-24T21:25:09.791Z,2.40
2022-10-24T21:27:58.803Z,2.63
2022-10-24T21:30:46.508Z,2.35
2022-10-24T21:33:35.050Z,2.40
2022-10-24T21:36:24.671Z,2.53
2022-10-24T21:39:14.006Z,1.90
2022-10-24T21:42:01.510Z,2.00
2022-10-24T21:44:50.484Z,1.77
2022-10-24T21:47:37.762Z,1.92
2022-10-24T21:50:25.149Z,1.75
2022-10-24T21:53:12.653Z,2.83
2022-10-24T21:56:04.354Z,2.78
2022-10-24T21:58:55.105Z,2.95
2022-10-24T22:01:46.818Z,5.70
2022-10-24T22:04:34.545Z,4.10
2022-10-24T22:07:22.398Z,3.63
2022-10-24T22:10:11.155Z,3.47
2022-10-24T22:12:58.980Z,3.40
2022-10-24T22:15:46.231Z,2.60
2022-10-24T22:18:35.983Z,2.47
2022-10-24T22:21:28.742Z,2.38
2022-10-24T22:27:06.083Z,2.00
2022-10-24T22:29:53.489Z,2.15
2022-10-24T22:32:41.333Z,1.90
2022-10-24T22:35:31.652Z,1.80
2022-10-24T22:38:19.761Z,1.80
2022-10-24T22:41:11.836Z,1.88
2022-10-24T22:44:00.106Z,1.65
2022-10-24T22:47:18.306Z,1.90
2022-10-24T22:50:26.094Z,1.60
2022-10-24T22:53:19.858Z,1.88
2022-10-24T22:56:17.696Z,2.60
2022-10-24T22:59:05.957Z,1.80
2022-10-24T23:02:03.749Z,1.60
2022-10-24T23:05:04.282Z,1.60
2022-10-24T23:08:02.157Z,1.30
2022-10-24T23:10:52.132Z,1.50
2022-10-24T23:13:40.979Z,1.60
2022-10-24T23:16:36.978Z,1.30
2022-10-24T23:19:28.055Z,1.52
2022-10-24T23:22:25.754Z,1.67
2022-10-24T23:25:15.407Z,1.40
2022-10-24T23:28:14.396Z,1.60
2022-10-24T23:33:51.376Z,1.20
2022-10-24T23:36:46.514Z,1.52
2022-10-24T23:39:36.561Z,1.20
2022-10-24T23:42:25.168Z,1.27
2022-10-24T23:45:17.090Z,1.50
2022-10-24T23:48:30.693Z,1.05
2022-10-24T23:51:28.734Z,1.30
2022-10-24T23:54:25.430Z,1.27
2022-10-24T23:57:19.663Z,1.02
